createdAt,value
2023-02-22T00:03:52.740Z,5.50
2023-02-22T00:08:55.763Z,5.50
2023-02-22T00:31:38.302Z,5.50
2023-02-22T00:36:46.738Z,5.50
2023-02-22T00:41:49.854Z,5.50
2023-02-22T00:46:53.002Z,5.50
2023-02-22T00:51:57.600Z,5.40
2023-02-22T00:57:00.062Z,5.40
2023-02-22T01:02:03.206Z,5.40
2023-02-22T01:07:06.175Z,5.40
2023-02-22T01:12:08.632Z,5.40
2023-02-22T01:17:11.018Z,5.50
2023-02-22T01:22:13.423Z,5.40
2023-02-22T01:27:16.639Z,5.40
2023-02-22T01:32:19.446Z,5.30
2023-02-22T01:37:21.799Z,5.20
2023-02-22T01:42:24.391Z,5.20
2023-02-22T01:47:26.733Z,5.20
2023-02-22T01:52:29.187Z,5.20
2023-02-22T01:57:35.938Z,5.20
2023-02-22T02:02:44.166Z,5.30
2023-02-22T02:07:46.646Z,5.00
2023-02-22T02:12:50.980Z,4.90
2023-02-22T02:17:57.068Z,4.80
2023-02-22T02:23:24.555Z,4.70
2023-02-22T02:28:45.953Z,4.70
2023-02-22T02:33:56.340Z,4.60
2023-02-22T02:39:08.148Z,4.40
2023-02-22T02:44:38.000Z,4.20
2023-02-22T02:49:51.338Z,4.10
2023-02-22T02:54:55.493Z,3.90
2023-02-22T02:59:57.892Z,3.70
2023-02-22T03:05:38.070Z,3.60
2023-02-22T03:11:05.406Z,3.60
2023-02-22T03:16:14.962Z,3.50
2023-02-22T03:21:37.033Z,3.30
2023-02-22T03:27:09.310Z,3.20
2023-02-22T03:32:17.189Z,3.10
2023-02-22T03:37:29.427Z,2.90
2023-02-22T03:42:36.257Z,2.90
2023-02-22T03:47:56.801Z,3.00
2023-02-22T03:53:01.642Z,2.70
2023-02-22T03:58:11.005Z,2.80
2023-02-22T04:03:14.299Z,2.40
2023-02-22T04:08:17.679Z,2.40
2023-02-22T04:13:20.448Z,2.30
2023-02-22T04:18:25.940Z,2.10
2023-02-22T04:23:28.867Z,2.10
2023-02-22T04:28:31.376Z,2.00
2023-02-22T04:34:00.577Z,2.00
2023-02-22T04:39:06.853Z,2.00
2023-02-22T04:44:09.459Z,1.90
2023-02-22T04:49:11.920Z,1.80
2023-02-22T04:54:17.907Z,1.70
2023-02-22T04:59:22.870Z,1.60
2023-02-22T05:04:31.500Z,1.50
2023-02-22T05:09:33.966Z,1.40
2023-02-22T05:14:36.372Z,1.40
2023-02-22T05:19:38.801Z,1.30
2023-02-22T05:24:41.213Z,1.30
2023-02-22T05:29:43.657Z,1.20
2023-02-22T05:34:46.032Z,1.10
2023-02-22T05:39:48.742Z,1.00
2023-02-22T05:44:51.121Z,0.90
2023-02-22T05:49:53.488Z,1.00
2023-02-22T05:54:55.854Z,1.00
2023-02-22T05:59:58.423Z,0.90
2023-02-22T06:05:00.875Z,0.90
2023-02-22T06:10:03.503Z,1.00
2023-02-22T06:15:06.370Z,1.00
2023-02-22T06:20:14.245Z,1.00
2023-02-22T06:25:19.476Z,1.00
2023-02-22T06:30:23.870Z,1.10
2023-02-22T06:35:26.389Z,1.40
2023-02-22T06:40:29.841Z,1.50
2023-02-22T06:45:32.272Z,1.50
2023-02-22T06:50:35.943Z,1.60
2023-02-22T06:55:38.641Z,1.80
2023-02-22T07:00:41.135Z,1.90
2023-02-22T07:05:43.717Z,2.10
2023-02-22T07:10:46.188Z,2.20
2023-02-22T07:15:48.633Z,2.40
2023-02-22T07:20:51.026Z,2.60
2023-02-22T07:25:53.429Z,2.80
2023-02-22T07:30:55.910Z,3.00
2023-02-22T07:35:58.369Z,3.30
2023-02-22T07:41:02.055Z,3.20
2023-02-22T07:46:04.717Z,3.30
2023-02-22T07:51:07.508Z,3.50
2023-02-22T07:56:10.354Z,3.60
2023-02-22T08:01:13.063Z,3.70
2023-02-22T08:06:15.441Z,3.80
2023-02-22T08:11:18.217Z,4.10
2023-02-22T08:16:20.823Z,4.20
2023-02-22T08:21:23.316Z,4.40
2023-02-22T08:26:25.924Z,4.20
2023-02-22T08:31:28.423Z,4.30
2023-02-22T08:36:32.999Z,4.30
2023-02-22T08:41:36.157Z,4.50
2023-02-22T08:46:39.127Z,4.50
2023-02-22T08:51:41.562Z,4.50
2023-02-22T08:56:44.264Z,4.60
2023-02-22T09:01:46.736Z,4.90
2023-02-22T09:06:52.023Z,5.20
2023-02-22T09:11:54.545Z,5.50
2023-02-22T09:16:57.003Z,5.60
2023-02-22T09:22:00.143Z,5.60
2023-02-22T09:27:04.470Z,5.80
2023-02-22T09:32:07.152Z,5.80
2023-02-22T09:37:09.755Z,5.90
2023-02-22T09:42:15.330Z,6.00
2023-02-22T09:47:32.498Z,6.20
2023-02-22T09:52:54.095Z,6.30
2023-02-22T09:57:58.308Z,6.40
2023-02-22T10:03:21.444Z,6.30
2023-02-22T10:08:31.195Z,6.30
2023-02-22T10:13:48.966Z,6.80
2023-02-22T10:19:22.581Z,6.80
2023-02-22T10:24:40.126Z,6.80
2023-02-22T10:29:51.245Z,7.20
2023-02-22T10:34:58.196Z,7.50
2023-02-22T10:40:22.991Z,7.60
2023-02-22T10:45:35.195Z,7.10
2023-02-22T10:50:42.340Z,7.70
2023-02-22T10:56:08.886Z,7.10
2023-02-22T11:01:42.112Z,7.10
2023-02-22T11:06:47.640Z,7.20
2023-02-22T11:12:07.655Z,7.00
2023-02-22T11:17:14.238Z,7.20
2023-02-22T11:22:29.411Z,7.00
2023-02-22T11:27:38.654Z,6.70
2023-02-22T11:32:59.356Z,7.00
2023-02-22T11:38:22.338Z,7.20
2023-02-22T11:43:24.758Z,7.40
2023-02-22T11:48:31.042Z,7.50
2023-02-22T11:54:01.546Z,7.60
2023-02-22T11:59:36.628Z,7.50
2023-02-22T12:05:18.462Z,7.60
2023-02-22T12:10:34.415Z,7.60
2023-02-22T12:15:47.211Z,7.60
2023-02-22T12:21:01.202Z,7.50
2023-02-22T12:26:11.883Z,7.50
2023-02-22T12:31:23.466Z,7.30
2023-02-22T12:36:33.900Z,7.40
2023-02-22T12:41:50.550Z,7.40
2023-02-22T12:46:57.207Z,7.40
2023-02-22T12:52:21.257Z,7.90
2023-02-22T12:57:51.734Z,8.00
2023-02-22T13:03:03.660Z,8.20
2023-02-22T13:08:32.596Z,7.80
2023-02-22T13:13:54.575Z,7.90
2023-02-22T13:19:15.043Z,7.70
2023-02-22T13:24:45.189Z,7.50
2023-02-22T13:29:52.110Z,7.30
2023-02-22T13:35:09.763Z,7.20
2023-02-22T13:40:24.843Z,7.20
2023-02-22T13:45:35.247Z,7.40
2023-02-22T13:50:56.464Z,7.80
2023-02-22T13:56:00.913Z,7.60
2023-02-22T14:01:03.562Z,7.60
2023-02-22T14:06:08.628Z,7.70
2023-02-22T14:11:13.964Z,7.50
2023-02-22T14:16:20.957Z,7.40
2023-02-22T14:21:23.632Z,7.20
2023-02-22T14:26:41.728Z,6.70
2023-02-22T14:31:44.161Z,6.50
2023-02-22T14:37:26.661Z,6.50
2023-02-22T14:42:34.374Z,6.50
2023-02-22T14:48:01.357Z,6.30
2023-02-22T14:53:27.451Z,6.20
2023-02-22T14:58:38.710Z,6.20
2023-02-22T15:03:41.359Z,6.20
2023-02-22T15:08:48.907Z,6.20
2023-02-22T15:13:54.100Z,6.40
2023-02-22T15:18:59.968Z,6.00
2023-02-22T15:24:06.652Z,5.90
2023-02-22T15:29:30.136Z,5.80
2023-02-22T15:34:33.535Z,5.60
2023-02-22T15:39:43.851Z,5.50
2023-02-22T15:44:48.778Z,5.40
2023-02-22T15:50:36.273Z,5.30
2023-02-22T15:55:41.703Z,5.20
2023-02-22T16:00:49.399Z,5.00
2023-02-22T16:06:00.679Z,4.90
2023-02-22T16:11:13.064Z,4.70
2023-02-22T16:16:20.904Z,4.60
2023-02-22T16:21:23.311Z,4.40
2023-02-22T16:26:29.431Z,4.30
2023-02-22T16:31:40.225Z,4.30
2023-02-22T16:36:45.830Z,4.10
2023-02-22T16:41:49.974Z,4.00
2023-02-22T16:46:53.467Z,4.00
2023-02-22T16:52:01.629Z,3.90
2023-02-22T16:57:05.157Z,3.80
2023-02-22T17:02:15.875Z,3.70
2023-02-22T17:07:24.151Z,3.60
2023-02-22T17:12:29.035Z,3.50
2023-02-22T17:17:32.745Z,3.40
2023-02-22T17:22:35.147Z,3.40
2023-02-22T17:27:37.606Z,3.30
2023-02-22T17:32:40.291Z,3.20
2023-02-22T17:37:43.025Z,3.10
2023-02-22T17:42:45.817Z,3.00
2023-02-22T17:47:48.284Z,3.00
2023-02-22T17:52:53.426Z,2.90
2023-02-22T17:58:00.904Z,2.80
2023-02-22T18:03:05.944Z,2.80
2023-02-22T18:08:08.639Z,2.80
2023-02-22T18:13:19.761Z,2.70
2023-02-22T18:18:23.149Z,2.70
2023-02-22T18:23:27.969Z,2.60
2023-02-22T18:28:31.276Z,2.50
2023-02-22T18:33:33.676Z,2.50
2023-02-22T18:38:36.125Z,2.50
2023-02-22T18:43:39.019Z,2.40
2023-02-22T18:48:41.569Z,2.30
2023-02-22T18:53:47.108Z,2.30
2023-02-22T18:58:54.343Z,2.20
2023-02-22T19:03:57.404Z,2.20
2023-02-22T19:09:01.593Z,2.20
2023-02-22T19:14:05.217Z,2.10
2023-02-22T19:19:07.624Z,2.00
2023-02-22T19:24:10.071Z,2.00
2023-02-22T19:29:12.438Z,2.00
2023-02-22T19:34:15.521Z,1.90
2023-02-22T19:39:19.896Z,1.90
2023-02-22T19:44:23.496Z,1.90
2023-02-22T19:49:27.916Z,1.90
2023-02-22T19:54:30.355Z,1.90
2023-02-22T19:59:32.772Z,1.80
2023-02-22T20:04:37.791Z,1.70
2023-02-22T20:09:40.391Z,1.70
2023-02-22T20:14:42.922Z,1.70
2023-02-22T20:19:45.310Z,1.70
2023-02-22T20:24:49.108Z,1.70
2023-02-22T20:29:51.651Z,1.60
2023-02-22T20:34:53.990Z,1.70
2023-02-22T20:39:56.386Z,1.60
2023-02-22T20:45:01.924Z,1.50
2023-02-22T20:50:05.676Z,1.50
2023-02-22T20:55:11.508Z,1.40
2023-02-22T21:00:14.523Z,1.40
2023-02-22T21:05:17.440Z,1.30
2023-02-22T21:10:21.133Z,1.30
2023-02-22T21:15:25.975Z,1.30
2023-02-22T21:20:28.658Z,1.30
2023-02-22T21:25:31.739Z,1.20
2023-02-22T21:30:34.174Z,1.10
2023-02-22T21:35:40.858Z,1.20
2023-02-22T21:40:46.526Z,1.10
2023-02-22T21:45:49.833Z,1.10
2023-02-22T21:50:52.332Z,1.10
2023-02-22T21:55:55.018Z,1.10
2023-02-22T22:01:05.924Z,1.10
2023-02-22T22:06:11.799Z,1.00
2023-02-22T22:11:18.048Z,1.00
2023-02-22T22:16:22.303Z,0.90
2023-02-22T22:21:25.005Z,0.90
2023-02-22T22:26:27.508Z,0.90
2023-02-22T22:31:30.837Z,0.90
2023-02-22T22:36:34.483Z,0.90
2023-02-22T22:41:36.925Z,0.80
2023-02-22T22:46:39.846Z,0.80
2023-02-22T22:51:42.738Z,0.80
2023-02-22T22:56:45.276Z,0.70
2023-02-22T23:01:47.674Z,0.70
2023-02-22T23:06:53.015Z,0.70
2023-02-22T23:12:08.534Z,0.70
2023-02-22T23:17:26.856Z,0.70
2023-02-22T23:22:29.489Z,0.60
2023-02-22T23:27:32.007Z,0.60
2023-02-22T23:32:35.209Z,0.60
2023-02-22T23:37:39.904Z,0.60
2023-02-22T23:42:46.183Z,0.60
2023-02-22T23:47:54.717Z,0.90
2023-02-22T23:53:02.660Z,0.60
2023-02-22T23:58:05.097Z,1.10
